METAR rapporten vliegvelden

   
EBAW - Antwerp
Gewijzigd: 13-07-2020 04:20
Helder  
Helder  
   Wind: varieert 3.7 km/h
Wind: varieert 3.7 km/h
Temperatuur: 12°C
Dauwpunt: 9°C
Vochtigheid: 82%
Barometer: 1026 hPa
Zicht: meer dan 10 km
Bewolking: Helder
EBAW 130220Z AUTO VRB02KT CAVOK 12/09 Q1026
EBLG - Li├Ęge
Gewijzigd: 13-07-2020 04:20
Helder  
Helder  
   Wind: varieert 3.7 km/h
Wind: varieert 3.7 km/h
Temperatuur: 13°C
Dauwpunt: 8°C
Vochtigheid: 72%
Barometer: 1025 hPa
Zicht: meer dan 10 km
Bewolking: Helder
EBLG 130220Z VRB02KT CAVOK 13/08 Q1025 NOSIG
EBCV - Mons/Bergen
Gewijzigd: 13-07-2020 03:55
Helder  
Helder  
   Wind: Noorden 7.4 km/h
Wind: Noorden 7.4 km/h
Temperatuur: 11°C
Dauwpunt: 9°C
Vochtigheid: 88%
Barometer: 1025 hPa
Bewolking: Helder
Zicht: meer dan 10 km
Bewolking: Helder
EBCV 130155Z AUTO 36004KT 9999 NCD 11/09 Q1025 BLU
EHBK - Maastricht
Gewijzigd: 13-07-2020 03:55
Gedeeltelijk bewolkt  
Gedeeltelijk bewolkt  
   Wind: NO 9.3 km/h
Wind: NO 9.3 km/h
Temperatuur: 11°C
Dauwpunt: 8°C
Vochtigheid: 82%
Barometer: 1025 hPa
Bewolking: Gedeeltelijk bewolkt
Zicht: meer dan 10 km
Bewolking: Gedeeltelijk bewolkt
EHBK 130155Z AUTO 04005KT 9999 NSC 11/08 Q1025
ELLX - Luxemburg
Gewijzigd: 13-07-2020 04:20
Helder  
Helder  
   Wind: NO 16.7 km/h
Wind: NO 16.7 km/h
Temperatuur: 15°C
Dauwpunt: 6°C
Vochtigheid: 55%
Barometer: 1024 hPa
Bewolking: Helder
Zicht: meer dan 10 km
Bewolking: Helder
ELLX 130220Z AUTO 05009KT 9999 NCD 15/06 Q1024 NOSIG
EBOS - Oostende
Gewijzigd: 13-07-2020 04:20
Helder  
Helder  
   Wind: Oosten 5.6 km/h
Wind: Oosten 5.6 km/h
Temperatuur: 10°C
Voelt als: 9°C
Dauwpunt: 9°C
Vochtigheid: 94%
Barometer: 1026 hPa
Zicht: meer dan 10 km
Bewolking: Helder
EBOS 130220Z 10003KT CAVOK 10/09 Q1026 NOSIG

Script ontwikkeld door  Saratoga-weather.org Aangepast voor de template door  Weerstation Leuven